createdAt,value
2023-02-07T00:00:57.110Z,100558.00
2023-02-07T00:03:25.230Z,100567.00
2023-02-07T00:05:53.285Z,100563.00
2023-02-07T00:08:21.315Z,100562.00
2023-02-07T00:10:50.734Z,100560.00
2023-02-07T00:13:18.838Z,100562.00
2023-02-07T00:15:46.863Z,100565.00
2023-02-07T00:18:14.972Z,100562.00
2023-02-07T00:20:43.108Z,100571.00
2023-02-07T00:23:11.353Z,100570.00
2023-02-07T00:25:39.571Z,100580.00
2023-02-07T00:28:09.151Z,100587.00
2023-02-07T00:30:37.280Z,100588.00
2023-02-07T00:33:05.416Z,100598.00
2023-02-07T00:35:33.603Z,100598.00
2023-02-07T00:38:01.650Z,100582.00
2023-02-07T00:40:29.824Z,100579.00
2023-02-07T00:42:57.918Z,100575.00
2023-02-07T00:45:27.453Z,100569.00
2023-02-07T00:47:55.523Z,100568.00
2023-02-07T00:50:23.591Z,100575.00
2023-02-07T00:52:51.682Z,100568.00
2023-02-07T00:55:19.820Z,100563.00
2023-02-07T00:57:47.888Z,100569.00
2023-02-07T01:00:16.125Z,100577.00
2023-02-07T01:02:45.561Z,100583.00
2023-02-07T01:05:13.644Z,100583.00
2023-02-07T01:07:41.775Z,100594.00
2023-02-07T01:10:11.542Z,100592.00
2023-02-07T01:12:39.766Z,100600.00
2023-02-07T01:15:08.764Z,100598.00
2023-02-07T01:17:36.827Z,100580.00
2023-02-07T01:20:06.956Z,100581.00
2023-02-07T01:22:35.068Z,100569.00
2023-02-07T01:25:03.146Z,100580.00
2023-02-07T01:27:31.205Z,100587.00
2023-02-07T01:29:59.265Z,100564.00
2023-02-07T01:32:27.376Z,100564.00
2023-02-07T01:34:55.438Z,100570.00
2023-02-07T01:37:24.854Z,100570.00
2023-02-07T01:39:52.898Z,100582.00
2023-02-07T01:42:20.998Z,100571.00
2023-02-07T01:45:10.331Z,100572.00
2023-02-07T01:47:38.370Z,100555.00
2023-02-07T01:50:06.912Z,100565.00
2023-02-07T01:52:38.150Z,100560.00
2023-02-07T01:55:08.172Z,100563.00
2023-02-07T01:57:36.231Z,100565.00
2023-02-07T02:00:04.621Z,100574.00
2023-02-07T02:02:34.286Z,100567.00
2023-02-07T02:05:02.749Z,100562.00
2023-02-07T02:07:32.763Z,100544.00
2023-02-07T02:10:02.239Z,100556.00
2023-02-07T02:12:39.182Z,100565.00
2023-02-07T02:15:16.367Z,100579.00
2023-02-07T02:17:51.318Z,100576.00
2023-02-07T02:20:31.858Z,100575.00
2023-02-07T02:23:08.756Z,100576.00
2023-02-07T02:26:24.589Z,100575.00
2023-02-07T02:29:21.399Z,100566.00
2023-02-07T02:32:45.645Z,100576.00
2023-02-07T02:35:14.475Z,100568.00
2023-02-07T02:37:45.873Z,100567.00
2023-02-07T02:40:18.088Z,100574.00
2023-02-07T02:42:48.922Z,100575.00
2023-02-07T02:45:17.912Z,100565.00
2023-02-07T02:47:48.024Z,100558.00
2023-02-07T02:50:17.250Z,100559.00
2023-02-07T02:52:50.975Z,100548.00
2023-02-07T02:55:19.427Z,100543.00
2023-02-07T02:57:55.046Z,100554.00
2023-02-07T03:00:30.194Z,100545.00
2023-02-07T03:03:07.437Z,100545.00
2023-02-07T03:05:40.979Z,100544.00
2023-02-07T03:08:23.507Z,100563.00
2023-02-07T03:10:56.277Z,100560.00
2023-02-07T03:13:26.955Z,100555.00
2023-02-07T03:16:01.878Z,100535.00
2023-02-07T03:18:35.530Z,100530.00
2023-02-07T03:21:06.826Z,100539.00
2023-02-07T03:23:34.841Z,100525.00
2023-02-07T03:26:02.891Z,100534.00
2023-02-07T03:28:30.984Z,100546.00
2023-02-07T03:30:59.139Z,100543.00
2023-02-07T03:33:27.210Z,100532.00
2023-02-07T03:35:58.533Z,100534.00
2023-02-07T03:38:26.591Z,100533.00
2023-02-07T03:40:57.600Z,100540.00
2023-02-07T03:43:26.289Z,100544.00
2023-02-07T03:45:54.341Z,100540.00
2023-02-07T03:48:22.335Z,100537.00
2023-02-07T03:50:51.991Z,100552.00
2023-02-07T03:53:21.742Z,100566.00
2023-02-07T03:55:49.846Z,100546.00
2023-02-07T03:58:17.889Z,100544.00
2023-02-07T04:00:45.932Z,100549.00
2023-02-07T04:03:13.951Z,100538.00
2023-02-07T04:05:42.350Z,100558.00
2023-02-07T04:08:10.548Z,100558.00
2023-02-07T04:10:39.956Z,100556.00
2023-02-07T04:13:07.988Z,100555.00
2023-02-07T04:15:36.557Z,100544.00
2023-02-07T04:18:04.945Z,100547.00
2023-02-07T04:20:32.986Z,100546.00
2023-02-07T04:23:01.010Z,100549.00
2023-02-07T04:25:29.063Z,100542.00
2023-02-07T04:27:58.472Z,100546.00
2023-02-07T04:30:26.559Z,100536.00
2023-02-07T04:32:54.597Z,100530.00
2023-02-07T04:35:22.650Z,100532.00
2023-02-07T04:37:50.658Z,100530.00
2023-02-07T04:40:18.816Z,100535.00
2023-02-07T04:42:46.840Z,100533.00
2023-02-07T04:45:16.368Z,100529.00
2023-02-07T04:47:44.386Z,100535.00
2023-02-07T04:50:12.439Z,100540.00
2023-02-07T04:52:41.522Z,100540.00
2023-02-07T04:55:09.694Z,100546.00
2023-02-07T04:57:37.731Z,100546.00
2023-02-07T05:00:06.348Z,100551.00
2023-02-07T05:02:42.031Z,100554.00
2023-02-07T05:05:10.146Z,100562.00
2023-02-07T05:07:38.176Z,100564.00
2023-02-07T05:10:06.972Z,100554.00
2023-02-07T05:12:34.989Z,100534.00
2023-02-07T05:15:03.113Z,100547.00
2023-02-07T05:17:34.894Z,100555.00
2023-02-07T05:20:04.386Z,100547.00
2023-02-07T05:22:32.409Z,100555.00
2023-02-07T05:25:00.409Z,100559.00
2023-02-07T05:27:29.625Z,100573.00
2023-02-07T05:29:59.441Z,100576.00
2023-02-07T05:32:44.883Z,100565.00
2023-02-07T05:35:14.236Z,100553.00
2023-02-07T05:37:42.249Z,100547.00
2023-02-07T05:40:13.018Z,100562.00
2023-02-07T05:42:41.096Z,100562.00
2023-02-07T05:45:09.369Z,100571.00
2023-02-07T05:47:37.352Z,100568.00
2023-02-07T05:50:05.776Z,100573.00
2023-02-07T05:52:35.845Z,100567.00
2023-02-07T05:55:04.331Z,100573.00
2023-02-07T05:57:32.653Z,100583.00
2023-02-07T06:00:00.754Z,100588.00
2023-02-07T06:02:28.812Z,100591.00
2023-02-07T06:04:56.867Z,100594.00
2023-02-07T06:07:24.898Z,100603.00
2023-02-07T06:09:54.967Z,100619.00
2023-02-07T06:12:23.283Z,100627.00
2023-02-07T06:14:51.572Z,100620.00
2023-02-07T06:17:20.023Z,100637.00
2023-02-07T06:19:48.802Z,100631.00
2023-02-07T06:22:17.197Z,100639.00
2023-02-07T06:24:45.680Z,100646.00
2023-02-07T06:27:15.830Z,100661.00
2023-02-07T06:29:44.132Z,100663.00
2023-02-07T06:32:12.788Z,100666.00
2023-02-07T06:34:41.658Z,100653.00
2023-02-07T06:37:09.916Z,100661.00
2023-02-07T06:39:38.112Z,100661.00
2023-02-07T06:42:06.475Z,100662.00
2023-02-07T06:44:36.210Z,100671.00
2023-02-07T06:47:04.613Z,100660.00
2023-02-07T06:49:32.808Z,100656.00
2023-02-07T06:52:01.382Z,100664.00
2023-02-07T06:54:29.727Z,100659.00
2023-02-07T06:56:58.201Z,100662.00
2023-02-07T06:59:26.586Z,100676.00
2023-02-07T07:01:56.636Z,100680.00
2023-02-07T07:04:25.099Z,100681.00
2023-02-07T07:06:53.564Z,100684.00
2023-02-07T07:09:21.895Z,100678.00
2023-02-07T07:11:50.282Z,100691.00
2023-02-07T07:14:18.629Z,100692.00
2023-02-07T07:16:46.947Z,100687.00
2023-02-07T07:19:17.034Z,100690.00
2023-02-07T07:21:45.554Z,100687.00
2023-02-07T07:24:13.905Z,100696.00
2023-02-07T07:26:49.722Z,100689.00
2023-02-07T07:29:18.369Z,100692.00
2023-02-07T07:31:47.007Z,100680.00
2023-02-07T07:34:17.128Z,100680.00
2023-02-07T07:36:45.432Z,100674.00
2023-02-07T07:39:14.693Z,100661.00
2023-02-07T07:41:43.107Z,100667.00
2023-02-07T07:44:11.557Z,100674.00
2023-02-07T07:46:39.919Z,100666.00
2023-02-07T07:49:08.313Z,100672.00
2023-02-07T07:51:38.614Z,100670.00
2023-02-07T07:54:09.673Z,100688.00
2023-02-07T07:56:38.094Z,100666.00
2023-02-07T07:59:12.205Z,100678.00
2023-02-07T08:01:48.637Z,100676.00
2023-02-07T08:04:16.964Z,100675.00
2023-02-07T08:06:47.032Z,100673.00
2023-02-07T08:09:15.414Z,100656.00
2023-02-07T08:11:43.901Z,100659.00
2023-02-07T08:14:12.451Z,100667.00
2023-02-07T08:16:40.792Z,100667.00
2023-02-07T08:19:09.114Z,100666.00
2023-02-07T08:21:37.488Z,100676.00
2023-02-07T08:24:07.765Z,100656.00
2023-02-07T08:26:36.131Z,100665.00
2023-02-07T08:29:04.626Z,100665.00
2023-02-07T08:31:33.019Z,100667.00
2023-02-07T08:34:01.367Z,100674.00
2023-02-07T08:36:29.550Z,100669.00
2023-02-07T08:38:57.790Z,100687.00
2023-02-07T08:41:27.621Z,100681.00
2023-02-07T08:43:55.984Z,100679.00
2023-02-07T08:46:24.392Z,100680.00
2023-02-07T08:48:55.506Z,100682.00
2023-02-07T08:51:24.308Z,100679.00
2023-02-07T08:53:52.536Z,100665.00
2023-02-07T08:56:20.919Z,100666.00
2023-02-07T08:58:50.595Z,100665.00
2023-02-07T09:01:18.930Z,100660.00
2023-02-07T09:03:47.581Z,100667.00
2023-02-07T09:06:15.845Z,100668.00
2023-02-07T09:08:44.348Z,100667.00
2023-02-07T09:11:12.782Z,100659.00
2023-02-07T09:13:41.185Z,100666.00
2023-02-07T09:16:10.850Z,100667.00
2023-02-07T09:18:39.270Z,100658.00
2023-02-07T09:21:08.137Z,100655.00
2023-02-07T09:23:37.072Z,100670.00
2023-02-07T09:26:06.651Z,100664.00
2023-02-07T09:28:35.564Z,100661.00
2023-02-07T09:31:10.946Z,100655.00
2023-02-07T09:33:39.573Z,100642.00
2023-02-07T09:36:08.967Z,100638.00
2023-02-07T09:38:37.292Z,100644.00
2023-02-07T09:41:05.748Z,100665.00
2023-02-07T09:43:38.819Z,100642.00
2023-02-07T09:46:12.034Z,100655.00
2023-02-07T09:48:46.734Z,100647.00
2023-02-07T09:51:15.526Z,100660.00
2023-02-07T09:53:45.386Z,100653.00
2023-02-07T09:56:13.866Z,100643.00
2023-02-07T09:58:44.520Z,100656.00
2023-02-07T10:01:15.126Z,100665.00
2023-02-07T10:03:49.512Z,100658.00
2023-02-07T10:06:20.660Z,100634.00
2023-02-07T10:08:52.971Z,100656.00
2023-02-07T10:11:23.315Z,100648.00
2023-02-07T10:14:02.226Z,100646.00
2023-02-07T10:16:45.875Z,100646.00
2023-02-07T10:19:20.277Z,100640.00
2023-02-07T10:21:51.664Z,100652.00
2023-02-07T10:25:00.620Z,100648.00
2023-02-07T10:27:31.213Z,100648.00
2023-02-07T10:30:05.350Z,100647.00
2023-02-07T10:32:35.042Z,100652.00
2023-02-07T10:35:09.689Z,100652.00
2023-02-07T10:37:38.988Z,100639.00
2023-02-07T10:40:09.296Z,100637.00
2023-02-07T10:42:37.979Z,100637.00
2023-02-07T10:45:07.566Z,100620.00
2023-02-07T10:47:37.720Z,100626.00
2023-02-07T10:50:13.827Z,100632.00
2023-02-07T10:52:44.879Z,100624.00
2023-02-07T10:55:14.639Z,100624.00
2023-02-07T10:57:50.903Z,100618.00
2023-02-07T11:00:25.217Z,100617.00
2023-02-07T11:02:54.094Z,100606.00
2023-02-07T11:05:38.396Z,100607.00
2023-02-07T11:08:09.962Z,100604.00
2023-02-07T11:10:39.426Z,100609.00
2023-02-07T11:13:14.037Z,100590.00
2023-02-07T11:15:48.916Z,100602.00
2023-02-07T11:18:37.780Z,100591.00
2023-02-07T11:21:21.884Z,100576.00
2023-02-07T11:23:50.204Z,100582.00
2023-02-07T11:26:18.932Z,100569.00
2023-02-07T11:28:47.325Z,100573.00
2023-02-07T11:31:17.328Z,100568.00
2023-02-07T11:33:45.759Z,100575.00
2023-02-07T11:36:23.539Z,100572.00
2023-02-07T11:38:53.929Z,100567.00
2023-02-07T11:41:24.605Z,100572.00
2023-02-07T11:43:54.406Z,100570.00
2023-02-07T11:46:22.919Z,100568.00
2023-02-07T11:48:51.520Z,100565.00
2023-02-07T11:51:21.294Z,100572.00
2023-02-07T11:53:51.703Z,100565.00
2023-02-07T11:56:24.046Z,100569.00
2023-02-07T11:58:52.401Z,100574.00
2023-02-07T12:01:23.968Z,100581.00
2023-02-07T12:03:58.672Z,100577.00
2023-02-07T12:06:31.340Z,100572.00
2023-02-07T12:08:59.916Z,100567.00
2023-02-07T12:11:29.850Z,100575.00
2023-02-07T12:14:02.169Z,100580.00
2023-02-07T12:16:31.463Z,100566.00
2023-02-07T12:19:04.804Z,100564.00
2023-02-07T12:21:36.308Z,100556.00
2023-02-07T12:24:05.721Z,100555.00
2023-02-07T12:26:34.902Z,100570.00
2023-02-07T12:29:13.850Z,100571.00
2023-02-07T12:31:48.694Z,100551.00
2023-02-07T12:34:19.990Z,100563.00
2023-02-07T12:36:49.751Z,100550.00
2023-02-07T12:39:22.466Z,100552.00
2023-02-07T12:41:51.568Z,100551.00
2023-02-07T12:44:23.725Z,100557.00
2023-02-07T12:46:57.171Z,100558.00
2023-02-07T12:49:34.058Z,100555.00
2023-02-07T12:52:11.415Z,100560.00
2023-02-07T12:54:43.053Z,100559.00
2023-02-07T12:57:13.958Z,100558.00
2023-02-07T12:59:50.596Z,100564.00
2023-02-07T13:02:36.551Z,100555.00
2023-02-07T13:05:35.032Z,100561.00
2023-02-07T13:08:08.834Z,100537.00
2023-02-07T13:10:38.793Z,100545.00
2023-02-07T13:13:10.001Z,100540.00
2023-02-07T13:15:40.695Z,100525.00
2023-02-07T13:18:11.278Z,100535.00
2023-02-07T13:20:49.045Z,100540.00
2023-02-07T13:23:19.490Z,100524.00
2023-02-07T13:25:49.223Z,100542.00
2023-02-07T13:28:20.136Z,100549.00
2023-02-07T13:30:48.328Z,100547.00
2023-02-07T13:33:25.930Z,100542.00
2023-02-07T13:35:54.132Z,100549.00
2023-02-07T13:38:35.416Z,100543.00
2023-02-07T13:41:05.557Z,100547.00
2023-02-07T13:43:39.421Z,100534.00
2023-02-07T13:46:09.239Z,100541.00
2023-02-07T13:48:39.093Z,100536.00
2023-02-07T13:51:13.085Z,100544.00
2023-02-07T13:53:46.504Z,100534.00
2023-02-07T13:56:29.338Z,100538.00
2023-02-07T13:59:14.895Z,100544.00
2023-02-07T14:01:53.606Z,100535.00
2023-02-07T14:04:21.781Z,100541.00
2023-02-07T14:07:03.752Z,100533.00
2023-02-07T14:09:35.128Z,100525.00
2023-02-07T14:12:03.846Z,100532.00
2023-02-07T14:14:32.626Z,100525.00
2023-02-07T14:17:01.348Z,100519.00
2023-02-07T14:19:48.678Z,100521.00
2023-02-07T14:22:18.074Z,100520.00
2023-02-07T14:25:19.016Z,100514.00
2023-02-07T14:28:08.923Z,100511.00
2023-02-07T14:30:38.347Z,100494.00
2023-02-07T14:33:14.645Z,100500.00
2023-02-07T14:36:07.353Z,100506.00
2023-02-07T14:38:37.565Z,100510.00
2023-02-07T14:41:11.498Z,100519.00
2023-02-07T14:43:59.727Z,100514.00
2023-02-07T14:46:35.673Z,100522.00
2023-02-07T14:49:05.617Z,100523.00
2023-02-07T14:51:39.535Z,100513.00
2023-02-07T14:54:14.714Z,100498.00
2023-02-07T14:56:47.914Z,100510.00
2023-02-07T14:59:20.135Z,100502.00
2023-02-07T15:01:48.784Z,100511.00
2023-02-07T15:04:17.283Z,100504.00
2023-02-07T15:06:46.646Z,100504.00
2023-02-07T15:09:26.545Z,100503.00
2023-02-07T15:12:10.556Z,100514.00
2023-02-07T15:14:41.147Z,100510.00
2023-02-07T15:17:09.863Z,100507.00
2023-02-07T15:19:38.977Z,100506.00
2023-02-07T15:22:20.446Z,100492.00
2023-02-07T15:24:53.500Z,100503.00
2023-02-07T15:27:23.902Z,100503.00
2023-02-07T15:29:55.582Z,100495.00
2023-02-07T15:32:24.034Z,100513.00
2023-02-07T15:34:52.102Z,100515.00
2023-02-07T15:37:21.591Z,100503.00
2023-02-07T15:39:53.274Z,100513.00
2023-02-07T15:42:22.752Z,100513.00
2023-02-07T15:44:51.749Z,100511.00
2023-02-07T15:47:36.048Z,100501.00
2023-02-07T15:50:05.705Z,100513.00
2023-02-07T15:52:35.142Z,100511.00
2023-02-07T15:55:03.635Z,100522.00
2023-02-07T15:57:35.034Z,100532.00
2023-02-07T16:00:05.002Z,100524.00
2023-02-07T16:02:34.711Z,100531.00
2023-02-07T16:05:09.569Z,100536.00
2023-02-07T16:07:37.725Z,100542.00
2023-02-07T16:10:33.965Z,100542.00
2023-02-07T16:13:06.125Z,100546.00
2023-02-07T16:15:35.225Z,100546.00
2023-02-07T16:18:03.855Z,100545.00
2023-02-07T16:20:32.869Z,100542.00
2023-02-07T16:23:01.699Z,100529.00
2023-02-07T16:25:32.374Z,100546.00
2023-02-07T16:28:00.652Z,100542.00
2023-02-07T16:30:35.298Z,100554.00
2023-02-07T16:33:05.820Z,100550.00
2023-02-07T16:35:33.930Z,100549.00
2023-02-07T16:38:02.058Z,100547.00
2023-02-07T16:40:30.363Z,100553.00
2023-02-07T16:42:58.519Z,100562.00
2023-02-07T16:45:27.793Z,100560.00
2023-02-07T16:47:57.291Z,100565.00
2023-02-07T16:50:26.070Z,100553.00
2023-02-07T16:52:56.971Z,100557.00
2023-02-07T16:55:26.313Z,100558.00
2023-02-07T16:57:55.895Z,100558.00
2023-02-07T17:00:25.024Z,100561.00
2023-02-07T17:02:57.597Z,100556.00
2023-02-07T17:05:27.212Z,100559.00
2023-02-07T17:07:55.385Z,100556.00
2023-02-07T17:10:24.926Z,100555.00
2023-02-07T17:12:54.144Z,100559.00
2023-02-07T17:15:30.450Z,100547.00
2023-02-07T17:18:03.761Z,100552.00
2023-02-07T17:20:35.943Z,100556.00
2023-02-07T17:23:04.646Z,100544.00
2023-02-07T17:25:33.347Z,100546.00
2023-02-07T17:28:01.568Z,100564.00
2023-02-07T17:30:30.731Z,100546.00
2023-02-07T17:32:58.826Z,100556.00
2023-02-07T17:35:26.999Z,100558.00
2023-02-07T17:37:56.434Z,100559.00
2023-02-07T17:40:29.818Z,100558.00
2023-02-07T17:42:57.994Z,100565.00
2023-02-07T17:45:26.439Z,100562.00
2023-02-07T17:47:56.473Z,100558.00
2023-02-07T17:50:26.672Z,100571.00
2023-02-07T17:52:56.095Z,100579.00
2023-02-07T17:55:24.138Z,100573.00
2023-02-07T17:57:52.315Z,100576.00
2023-02-07T18:00:22.338Z,100587.00
2023-02-07T18:02:50.420Z,100593.00
2023-02-07T18:05:18.709Z,100591.00
2023-02-07T18:07:47.308Z,100597.00
2023-02-07T18:10:20.729Z,100594.00
2023-02-07T18:12:48.958Z,100587.00
2023-02-07T18:15:17.831Z,100589.00
2023-02-07T18:17:47.482Z,100588.00
2023-02-07T18:20:17.337Z,100593.00
2023-02-07T18:22:45.432Z,100586.00
2023-02-07T18:25:13.454Z,100580.00
2023-02-07T18:27:45.813Z,100579.00
2023-02-07T18:30:14.690Z,100575.00
2023-02-07T18:32:42.836Z,100576.00
2023-02-07T18:35:11.301Z,100577.00
2023-02-07T18:37:39.437Z,100574.00
2023-02-07T18:40:08.217Z,100587.00
2023-02-07T18:42:37.225Z,100586.00
2023-02-07T18:45:08.420Z,100588.00
2023-02-07T18:47:36.929Z,100590.00
2023-02-07T18:50:05.445Z,100590.00
2023-02-07T18:52:33.931Z,100582.00
2023-02-07T18:55:02.258Z,100591.00
2023-02-07T18:57:30.443Z,100604.00
2023-02-07T18:59:58.677Z,100591.00
2023-02-07T19:02:28.467Z,100594.00
2023-02-07T19:04:56.788Z,100603.00
2023-02-07T19:07:25.289Z,100594.00
2023-02-07T19:09:53.730Z,100604.00
2023-02-07T19:12:23.277Z,100610.00
2023-02-07T19:14:52.872Z,100606.00
2023-02-07T19:17:22.597Z,100609.00
2023-02-07T19:19:54.051Z,100604.00
2023-02-07T19:22:34.668Z,100613.00
2023-02-07T19:25:03.957Z,100619.00
2023-02-07T19:27:32.351Z,100610.00
2023-02-07T19:30:00.574Z,100618.00
2023-02-07T19:32:28.999Z,100614.00
2023-02-07T19:34:58.763Z,100613.00
2023-02-07T19:37:27.009Z,100614.00
2023-02-07T19:39:56.361Z,100606.00
2023-02-07T19:42:25.228Z,100615.00
2023-02-07T19:44:53.497Z,100624.00
2023-02-07T19:47:21.946Z,100615.00
2023-02-07T19:49:52.177Z,100610.00
2023-02-07T19:52:23.303Z,100606.00
2023-02-07T19:54:51.455Z,100611.00
2023-02-07T19:57:19.695Z,100606.00
2023-02-07T19:59:48.556Z,100603.00
2023-02-07T20:02:16.858Z,100613.00
2023-02-07T20:04:45.606Z,100610.00
2023-02-07T20:07:13.901Z,100608.00
2023-02-07T20:09:43.890Z,100605.00
2023-02-07T20:12:12.106Z,100611.00
2023-02-07T20:14:40.457Z,100609.00
2023-02-07T20:17:08.618Z,100605.00
2023-02-07T20:19:36.730Z,100613.00
2023-02-07T20:22:04.910Z,100608.00
2023-02-07T20:24:33.063Z,100614.00
2023-02-07T20:27:02.630Z,100603.00
2023-02-07T20:29:32.590Z,100614.00
2023-02-07T20:32:00.766Z,100617.00
2023-02-07T20:34:28.923Z,100610.00
2023-02-07T20:36:57.114Z,100608.00
2023-02-07T20:39:26.570Z,100609.00
2023-02-07T20:41:54.668Z,100603.00
2023-02-07T20:44:26.565Z,100605.00
2023-02-07T20:46:55.450Z,100613.00
2023-02-07T20:49:28.592Z,100617.00
2023-02-07T20:51:57.219Z,100615.00
2023-02-07T20:54:26.581Z,100609.00
2023-02-07T20:56:55.218Z,100601.00
2023-02-07T20:59:25.983Z,100609.00
2023-02-07T21:01:54.178Z,100612.00
2023-02-07T21:04:22.361Z,100604.00
2023-02-07T21:06:50.621Z,100615.00
2023-02-07T21:09:18.885Z,100618.00
2023-02-07T21:11:47.956Z,100605.00
2023-02-07T21:14:17.336Z,100606.00
2023-02-07T21:16:46.867Z,100611.00
2023-02-07T21:19:15.044Z,100613.00
2023-02-07T21:21:43.370Z,100612.00
2023-02-07T21:24:11.497Z,100597.00
2023-02-07T21:26:39.629Z,100606.00
2023-02-07T21:29:07.842Z,100606.00
2023-02-07T21:31:36.397Z,100610.00
2023-02-07T21:34:06.143Z,100604.00
2023-02-07T21:36:37.567Z,100597.00
2023-02-07T21:39:08.415Z,100602.00
2023-02-07T21:41:36.525Z,100610.00
2023-02-07T21:44:05.017Z,100593.00
2023-02-07T21:46:34.748Z,100590.00
2023-02-07T21:49:06.032Z,100599.00
2023-02-07T21:51:34.883Z,100600.00
2023-02-07T21:54:03.502Z,100590.00
2023-02-07T21:56:33.983Z,100596.00
2023-02-07T21:59:03.492Z,100594.00
2023-02-07T22:01:32.675Z,100589.00
2023-02-07T22:04:01.573Z,100596.00
2023-02-07T22:06:31.046Z,100590.00
2023-02-07T22:09:00.045Z,100586.00
2023-02-07T22:11:29.893Z,100591.00
2023-02-07T22:13:57.939Z,100590.00
2023-02-07T22:16:26.620Z,100587.00
2023-02-07T22:18:54.973Z,100592.00
2023-02-07T22:21:23.865Z,100597.00
2023-02-07T22:23:53.371Z,100591.00
2023-02-07T22:26:21.820Z,100600.00
2023-02-07T22:28:49.948Z,100592.00
2023-02-07T22:31:19.193Z,100591.00
2023-02-07T22:33:47.333Z,100593.00
2023-02-07T22:36:15.688Z,100591.00
2023-02-07T22:38:43.733Z,100579.00
2023-02-07T22:41:13.152Z,100571.00
2023-02-07T22:43:41.341Z,100566.00
2023-02-07T22:46:10.478Z,100563.00
2023-02-07T22:48:38.515Z,100572.00
2023-02-07T22:51:13.552Z,100564.00
2023-02-07T22:53:41.876Z,100562.00
2023-02-07T22:56:09.983Z,100561.00
2023-02-07T22:58:39.401Z,100563.00
2023-02-07T23:01:07.532Z,100565.00
2023-02-07T23:03:35.636Z,100560.00
2023-02-07T23:06:04.879Z,100573.00
2023-02-07T23:08:32.903Z,100568.00
2023-02-07T23:11:00.932Z,100582.00
2023-02-07T23:13:28.949Z,100566.00
2023-02-07T23:15:58.416Z,100566.00
2023-02-07T23:18:26.464Z,100556.00
2023-02-07T23:20:54.523Z,100554.00
2023-02-07T23:23:23.199Z,100568.00
2023-02-07T23:25:51.447Z,100565.00
2023-02-07T23:28:19.650Z,100564.00
2023-02-07T23:30:47.852Z,100556.00
2023-02-07T23:33:17.257Z,100563.00
2023-02-07T23:35:45.228Z,100569.00
2023-02-07T23:38:13.225Z,100556.00
2023-02-07T23:40:41.418Z,100563.00
2023-02-07T23:43:09.510Z,100557.00
2023-02-07T23:45:37.528Z,100573.00
2023-02-07T23:48:07.301Z,100561.00
2023-02-07T23:50:36.660Z,100561.00
2023-02-07T23:53:04.676Z,100565.00
2023-02-07T23:55:32.654Z,100562.00
2023-02-07T23:58:00.660Z,100549.00
